Terminal Aerodrome Forecast
Issued by NWS Charleston, WV

Current Version | Previous Version | Text Only | Print | Product List | Glossary Off
Versions: 1 2 3 4 5 6 7 8 9 10 11 12 13 14 15 16 17 18 19 20 21 22 23 24 25 26 27 28 29 30

000
FTUS41 KRLX 172100 AAA
TAFHTS
TAF AMD
KHTS 172109Z 1721/1818 22012G20KT P6SM BKN060
     FM180000 24008KT P6SM BKN050
     FM180200 25006KT P6SM BKN040
     FM180500 26007KT P6SM BKN030
     FM181300 29011G19KT P6SM OVC025=

USA.gov is the U.S. government's official web portal to all federal, state and local government web resources and services.